This is the latest recevied weather packets stored in our database for station/object AA7F. If no packets are shown the sender has not sent any weather packets the latest 10 day(s).
| Time | Temp. | Humidity | Pressure | Rain* | Wind** | Luminosity | Snow |
|---|---|---|---|---|---|---|---|
| 1777630080 | 8.33° C | 74% | 1018.1 hPa | 0 mm | - | 0 W/m² | - |
| 1777629777 | 8.33° C | 74% | 1017.7 hPa | 0 mm | - | 0 W/m² | - |
| 1777629473 | 8.33° C | 74% | 1017.9 hPa | 0 mm | - | 0 W/m² | - |
| 1777629169 | 8.33° C | 74% | 1018 hPa | 0 mm | - | 0 W/m² | - |
| 1777628866 | 8.89° C | 74% | 1017.9 hPa | 0 mm | - | 0 W/m² | - |
| 1777628258 | 8.89° C | 73% | 1017.8 hPa | 0 mm | - | 0 W/m² | - |
| 1777627955 | 8.89° C | 72% | 1018 hPa | 0 mm | - | 0 W/m² | - |
| 1777627648 | 8.89° C | 72% | 1017.7 hPa | 0 mm | - | 0 W/m² | - |
| 1777627348 | 8.89° C | 72% | 1017.8 hPa | 0 mm | - | 0 W/m² | - |
| 1777627046 | 8.89° C | 72% | 1017.8 hPa | 0 mm | - | 0 W/m² | - |
| 1777626741 | 8.89° C | 71% | 1017.7 hPa | 0 mm | - | 0 W/m² | - |
| 1777626438 | 9.44° C | 71% | 1017.7 hPa | 0 mm | - | 0 W/m² | - |
| 1777626137 | 9.44° C | 71% | 1017.6 hPa | 0 mm | - | 0 W/m² | - |
| 1777625831 | 8.89° C | 72% | 1017.9 hPa | 0 mm | - | 0 W/m² | - |
| 1777625527 | 8.89° C | 73% | 1018.1 hPa | 0 mm | - | 0 W/m² | - |
| 1777625223 | 10° C | 69% | 1018 hPa | 0 mm | - | 0 W/m² | - |
| 1777624920 | 10.56° C | 66% | 1017.9 hPa | 0 mm | - | 0 W/m² | - |
| 1777624616 | 10° C | 66% | 1017.8 hPa | 0 mm | - | 0 W/m² | - |
| 1777624316 | 10.56° C | 66% | 1017.9 hPa | 0 mm | - | 0 W/m² | - |
| 1777624014 | 10.56° C | 65% | 1018.3 hPa | 0 mm | - | 0 W/m² | - |
| 1777623711 | 10.56° C | 64% | 1017.9 hPa | 0 mm | - | 0 W/m² | - |
| 1777623408 | 10.56° C | 64% | 1017.9 hPa | 0 mm | - | 0 W/m² | - |
| 1777623105 | 10.56° C | 64% | 1017.8 hPa | 0 mm | - | 0 W/m² | - |
| 1777622802 | 10.56° C | 66% | 1017.9 hPa | 0 mm | - | 0 W/m² | - |
| 1777622499 | 10.56° C | 66% | 1017.9 hPa | 0 mm | - | 0 W/m² | - |
* Rain latest hour (hover to see other rain measurements)
** Current wind speed in m/s (hover to see current wind gust speed)